PrentiSS Brown — WDE6848 — position and weather

sailwx.info

Track history (hours):
 
Tides and Currents Weather Stations Pressure Air Temp Water Temp Dewpoint Dewpoint Depression Visibility Wind Speed Wind Dir Waves Ship Positions

PrentiSS Brown

Owner: Port City Marine Services Inc, Muskegon, MI. More information available from US FCC via Universal Licensing System and Coast Guard Vessel Documentation Center.

Last reported at 2016-Jun-27 07:15 UTC. Time now 2016-Jun-28 17:06 UTC.
Position N 45°13' W 085°39'.

; draft 5.3 m.

Type: Other ship. MMSI: 366922280.

Date/timePositionNaut miles runAvg speedWind from/ knotsBaromVisibWave heightAir tempDewpointWater temp
2016-Jun-27 07:15N 45°13' W 085°39'5 7.7
2016-Jun-27 06:33N 45°15' W 085°32'8 7.8
2016-Jun-27 05:33N 45°19' W 085°22'3 3.4
2016-Jun-27 04:33N 45°19' W 085°18'0 0.1
2016-Jun-27 03:33N 45°19' W 085°18'0 0.0
2016-Jun-27 02:33N 45°19' W 085°18'0 0.0
2016-Jun-27 01:33N 45°19' W 085°18'0 0.0
2016-Jun-27 00:33N 45°19' W 085°18'0 0.0
2016-Jun-26 23:33N 45°19' W 085°18'0 0.0
2016-Jun-26 22:33N 45°19' W 085°18'1 1.4
2016-Jun-26 21:33N 45°20' W 085°19'9 9.3
2016-Jun-26 20:33N 45°16' W 085°31'9 0.2
2016-Jun-25 06:07N 45°11' W 085°42'5 8.6
2016-Jun-25 05:33N 45°14' W 085°37'9 8.6
2016-Jun-25 04:33N 45°18' W 085°26'6 6.3
2016-Jun-25 03:33N 45°19' W 085°17'0 0.5
2016-Jun-25 02:33N 45°19' W 085°18'0 0.0
2016-Jun-25 01:33N 45°19' W 085°18'0 0.0
2016-Jun-25 00:33N 45°19' W 085°18'0 0.0
2016-Jun-24 23:33N 45°19' W 085°18'0 0.0
2016-Jun-24 22:33N 45°19' W 085°18'3 2.7
2016-Jun-24 21:33N 45°19' W 085°21'9 9.0
2016-Jun-24 20:33N 45°15' W 085°33'12 8.9
2016-Jun-24 19:15N 45°08' W 085°46'0 0.0
2016-Jun-22 17:25N 45°08' W 085°46'7 8.4
2016-Jun-22 16:33N 45°13' W 085°39'8 8.3
2016-Jun-22 15:33N 45°17' W 085°28'8 8.0
2016-Jun-22 14:33N 45°20' W 085°18'  
Track history (hours):
 
Tides and Currents Weather Stations Pressure Air Temp Water Temp Dewpoint Dewpoint Depression Visibility Wind Speed Wind Dir Waves Ship Positions

PrentiSS Brown

Owner: Port City Marine Services Inc, Muskegon, MI. More information available from US FCC via Universal Licensing System and Coast Guard Vessel Documentation Center.

Last reported at 2016-Jun-27 07:15 UTC. Time now 2016-Jun-28 17:06 UTC.
Position N 45°13' W 085°39'.

; draft 5.3 m.

Type: Other ship. MMSI: 366922280.

Date/timePositionNaut miles runAvg speedWind from/ knotsBaromVisibWave heightAir tempDewpointWater temp
2016-Jun-27 07:15N 45°13' W 085°39'5 7.7
2016-Jun-27 06:33N 45°15' W 085°32'8 7.8
2016-Jun-27 05:33N 45°19' W 085°22'3 3.4
2016-Jun-27 04:33N 45°19' W 085°18'0 0.1
2016-Jun-27 03:33N 45°19' W 085°18'0 0.0
2016-Jun-27 02:33N 45°19' W 085°18'0 0.0
2016-Jun-27 01:33N 45°19' W 085°18'0 0.0
2016-Jun-27 00:33N 45°19' W 085°18'0 0.0
2016-Jun-26 23:33N 45°19' W 085°18'0 0.0
2016-Jun-26 22:33N 45°19' W 085°18'1 1.4
2016-Jun-26 21:33N 45°20' W 085°19'9 9.3
2016-Jun-26 20:33N 45°16' W 085°31'9 0.2
2016-Jun-25 06:07N 45°11' W 085°42'5 8.6
2016-Jun-25 05:33N 45°14' W 085°37'9 8.6
2016-Jun-25 04:33N 45°18' W 085°26'6 6.3
2016-Jun-25 03:33N 45°19' W 085°17'0 0.5
2016-Jun-25 02:33N 45°19' W 085°18'0 0.0
2016-Jun-25 01:33N 45°19' W 085°18'0 0.0
2016-Jun-25 00:33N 45°19' W 085°18'0 0.0
2016-Jun-24 23:33N 45°19' W 085°18'0 0.0
2016-Jun-24 22:33N 45°19' W 085°18'3 2.7
2016-Jun-24 21:33N 45°19' W 085°21'9 9.0
2016-Jun-24 20:33N 45°15' W 085°33'12 8.9
2016-Jun-24 19:15N 45°08' W 085°46'0 0.0
2016-Jun-22 17:25N 45°08' W 085°46'7 8.4
2016-Jun-22 16:33N 45°13' W 085°39'8 8.3
2016-Jun-22 15:33N 45°17' W 085°28'8 8.0
2016-Jun-22 14:33N 45°20' W 085°18'  

Dump ship's entire track history